• Join FlightAware (Why Join?)
  • Login
  • US Flag 
Gobble Gobble! 
09:50AM EST


 

Airport Tracker/Info


-or-


 

Live Flight TrackerFlight Track Log ✈ ASQ5958 ✈ 12-May-2013 ✈ KTUL - KORD

Flight Track Log - Related Links

Times and Time Zones

All times are in EDT time to prevent confusion due to time zone crossing. See the ASQ5958 flight status page for this flight to view local times or setup timezone preferences in your user account.

Time Position Orientation Groundspeed Altitude Reporting Facility
EDT Latitude Longitude Course Direction KTS MPH feet Rate Location/Type
02:43PM 36.1953 -95.8633 75° East 164 189 1,300  Level Kansas City Center
02:44PM 36.2119 -95.7886 75° East 217 250 3,600 1,800 Climbing Kansas City Center
02:45PM 36.2197 -95.7689 64° Northeast 229 264 4,100 2,400 Climbing Kansas City Center
02:45PM 36.2475 -95.7142 58° Northeast 272 313 6,000 2,280 Climbing Kansas City Center
02:46PM 36.2569 -95.6911 63° Northeast 252 290 6,500 2,220 Climbing Kansas City Center
02:47PM 36.3058 -95.5886 59° Northeast 283 326 9,400 2,100 Climbing Kansas City Center
02:48PM 36.3492 -95.4958 60° Northeast 305 351 10,900 1,380 Climbing Kansas City Center
02:49PM 36.3967 -95.3961 59° Northeast 345 397 12,300 1,380 Climbing Kansas City Center
02:50PM 36.4469 -95.2886 60° Northeast 357 411 13,800 1,680 Climbing Kansas City Center
02:51PM 36.5094 -95.1536 60° Northeast 367 422 15,800 1,680 Climbing Kansas City Center
02:52PM 36.5611 -95.0425 60° Northeast 372 428 17,300 1,200 Climbing Kansas City Center
02:53PM 36.6139 -94.9289 60° Northeast 376 433 18,400 1,200 Climbing Kansas City Center
02:54PM 36.6675 -94.8131 60° Northeast 383 441 19,800 1,260 Climbing Kansas City Center
02:55PM 36.7206 -94.6961 60° Northeast 386 444 21,100 1,200 Climbing Kansas City Center
02:56PM 36.7758 -94.5769 60° Northeast 394 453 22,400 1,320 Climbing Kansas City Center
02:57PM 36.8469 -94.4328 58° Northeast 404 465 23,900 1,320 Climbing Kansas City Center
02:58PM 36.9278 -94.3397 43° Northeast 398 458 25,200 1,200 Climbing Kansas City Center
02:59PM 37.0108 -94.2475 42° Northeast 397 457 26,500 1,200 Climbing Kansas City Center
03:00PM 37.0944 -94.1561 41° Northeast 398 458 27,800 1,200 Climbing Kansas City Center
03:01PM 37.1767 -94.0625 42° Northeast 397 457 29,000 1,140 Climbing Kansas City Center
03:02PM 37.2592 -93.9711 41° Northeast 396 456 30,200 960 Climbing Kansas City Center
03:03PM 37.3419 -93.8786 42° Northeast 397 457 31,100 960 Climbing Kansas City Center
03:04PM 37.4425 -93.7631 42° Northeast 404 465 32,300 1,020 Climbing Kansas City Center
03:05PM 37.5283 -93.6675 41° Northeast 408 470 33,300 960 Climbing Kansas City Center
03:07PM 37.6136 -93.5703 42° Northeast 411 473 34,300 780 Climbing Kansas City Center
03:08PM 37.6992 -93.4725 42° Northeast 411 473 35,000 300 Climbing Kansas City Center
03:09PM 37.7872 -93.3728 42° Northeast 420 483 35,000  Level Kansas City Center
03:10PM 37.8783 -93.2669 43° Northeast 434 499 35,000  Level Kansas City Center
03:11PM 37.9744 -93.1575 42° Northeast 452 520 35,000  Level Kansas City Center
03:12PM 38.0717 -93.0442 43° Northeast 464 534 35,000  Level Kansas City Center
03:13PM 38.1706 -92.9303 42° Northeast 470 541 35,000  Level Kansas City Center
03:14PM 38.2894 -92.7917 42° Northeast 476 548 35,000  Level Kansas City Center
03:15PM 38.3844 -92.6767 43° Northeast 468 539 35,000  Level Kansas City Center
03:16PM 38.4808 -92.5661 42° Northeast 464 534 35,000  Level Kansas City Center
03:17PM 38.5753 -92.4544 43° Northeast 459 528 35,000  Level Kansas City Center
03:18PM 38.6681 -92.3414 44° Northeast 458 527 35,000  Level Kansas City Center
03:19PM 38.7617 -92.2314 42° Northeast 456 525 35,000  Level Kansas City Center
03:20PM 38.8550 -92.1183 43° Northeast 458 527 35,000  Level Kansas City Center
03:21PM 38.9492 -92.0053 43° Northeast 460 529 35,000  Level Kansas City Center
03:22PM 39.0425 -91.8928 43° Northeast 459 528 35,000  Level Kansas City Center
03:23PM 39.1558 -91.7558 43° Northeast 462 532 35,000  Level Kansas City Center
03:24PM 39.2422 -91.6519 43° Northeast 464 534 35,000  Level Kansas City Center
03:25PM 39.3392 -91.5361 43° Northeast 471 542 35,000  Level Kansas City Center
03:26PM 39.4344 -91.4206 43° Northeast 470 541 35,000  Level Kansas City Center
03:27PM 39.5283 -91.3047 44° Northeast 467 537 35,000  Level Kansas City Center
03:28PM 39.6411 -91.1642 44° Northeast 467 537 35,000  Level Kansas City Center
03:29PM 39.7361 -91.0511 42° Northeast 465 535 35,000  Level Kansas City Center
03:30PM 39.8311 -90.9578 37° Northeast 464 534 35,000  Level Kansas City Center
03:31PM 39.9317 -90.8550 38° Northeast 459 528 35,000 -60 Level Kansas City Center
03:32PM 40.0333 -90.7547 37° Northeast 459 528 34,900 -1,020 Descending Kansas City Center
03:33PM 40.1544 -90.6311 38° Northeast 460 529 33,000 -1,080 Descending Kansas City Center
03:34PM 40.2356 -90.5486 38° Northeast 459 528 33,000  Level Chicago Center
03:35PM 40.3261 -90.4256 46° Northeast 467 537 33,000  Level Chicago Center
03:36PM 40.4150 -90.2992 47° Northeast 470 541 33,000  Level Chicago Center
03:37PM 40.5014 -90.1761 47° Northeast 465 535 33,000  Level Chicago Center
03:38PM 40.5900 -90.0517 47° Northeast 466 536 33,000  Level Chicago Center
03:39PM 40.6947 -89.9025 47° Northeast 464 534 33,000 -1,020 Level Chicago Center
03:40PM 40.7800 -89.7786 48° Northeast 459 528 30,900 -2,460 Descending Chicago Center
03:41PM 40.8650 -89.6572 47° Northeast 454 522 28,000 -2,760 Descending Chicago Center
03:42PM 40.9436 -89.5444 47° Northeast 452 520 25,300 -2,280 Descending Chicago Center
03:43PM 41.0256 -89.4256 48° Northeast 437 503 23,300 -1,560 Descending Chicago Center
03:44PM 41.1203 -89.2872 48° Northeast 424 488 22,100 -1,620 Descending Chicago Center
03:45PM 41.2042 -89.1669 47° Northeast 421 484 20,000 -2,340 Descending Chicago Center
03:46PM 41.2783 -89.0544 49° Northeast 407 468 17,300 -2,520 Descending Chicago Center
03:48PM 41.3511 -88.9472 48° Northeast 396 456 14,800 -2,400 Descending Chicago Center
03:49PM 41.4200 -88.8428 49° Northeast 375 432 12,400 -1,800 Descending Chicago Center
03:50PM 41.4883 -88.7433 47° Northeast 366 421 11,100 -720 Descending Chicago Center
03:51PM 41.5414 -88.6311 58° Northeast 358 412 11,000 -60 Descending Chicago Center
03:52PM 41.5900 -88.5092 62° Northeast 368 423 11,000  Level Chicago Center
03:53PM 41.6611 -88.3747 55° Northeast 368 423 11,000  Level Chicago Center
03:54PM 41.7242 -88.2672 52° Northeast 366 421 11,000 -360 Level Chicago Center
03:55PM 41.7850 -88.1633 52° Northeast 353 406 10,300 -960 Descending Chicago Center
03:56PM 41.8322 -88.0822 52° Northeast 284 327 9,100 -1,440 Descending Chicago Center
03:57PM 41.8769 -88.0008 54° Northeast 273 314 7,400 -1,380 Descending Chicago Center
03:57PM 41.8833 -87.9500 80° East 276 318 7,100 -300 Descending Chicago TRACON
03:58PM 41.8833 -87.8500 90° East 235 270 7,000 -900 Descending Chicago TRACON
03:59PM 41.8833 -87.7833 90° East 205 236 5,500 -1,500 Descending Chicago TRACON
04:00PM 41.9167 -87.7333 48° Northeast 199 229 4,200 -1,200 Descending Chicago TRACON
04:01PM 41.9500 -87.7667 323° Northwest 171 197 3,200 -1,200 Descending Chicago TRACON
04:02PM 41.9667 -87.8167 294° West 140 161 1,900 -1,140 Descending Chicago TRACON
04:03PM 41.9667 -87.8667 270° West 139 160 1,000 -900 Descending Chicago TRACON
04:05PM 41.9667 -87.9000 North  Level FlightAware Approximate